createdAt,value
2018-04-13T00:00:51.452Z,49.30
2018-04-13T00:03:18.978Z,49.30
2018-04-13T00:05:46.523Z,49.40
2018-04-13T00:08:14.065Z,49.30
2018-04-13T00:10:41.641Z,49.30
2018-04-13T00:13:09.185Z,49.40
2018-04-13T00:15:36.760Z,49.60
2018-04-13T00:18:04.302Z,49.40
2018-04-13T00:20:31.931Z,49.40
2018-04-13T00:22:59.495Z,49.40
2018-04-13T00:25:27.036Z,50.00
2018-04-13T00:27:54.613Z,50.10
2018-04-13T00:30:22.444Z,50.10
2018-04-13T00:32:50.740Z,50.10
2018-04-13T00:35:18.316Z,50.10
2018-04-13T00:37:45.895Z,50.10
2018-04-13T00:40:13.441Z,50.00
2018-04-13T00:42:41.002Z,50.00
2018-04-13T00:45:08.546Z,49.70
2018-04-13T00:47:36.132Z,49.70
2018-04-13T00:50:03.719Z,49.60
2018-04-13T00:52:31.287Z,49.40
2018-04-13T00:54:58.869Z,49.70
2018-04-13T00:57:27.201Z,49.80
2018-04-13T00:59:54.730Z,49.70
2018-04-13T01:02:22.315Z,49.90
2018-04-13T01:04:49.896Z,49.90
2018-04-13T01:07:17.578Z,49.80
2018-04-13T01:09:45.144Z,50.00
2018-04-13T01:12:13.469Z,50.00
2018-04-13T01:14:41.055Z,49.90
2018-04-13T01:17:08.645Z,50.00
2018-04-13T01:19:36.200Z,49.90
2018-04-13T01:22:04.508Z,49.90
2018-04-13T01:24:32.203Z,49.90
2018-04-13T01:26:59.731Z,49.80
2018-04-13T01:29:27.510Z,49.70
2018-04-13T01:31:55.050Z,49.80
2018-04-13T01:34:22.615Z,49.80
2018-04-13T01:36:50.190Z,49.90
2018-04-13T01:39:17.711Z,50.00
2018-04-13T01:41:46.048Z,50.20
2018-04-13T01:44:13.587Z,50.10
2018-04-13T01:46:41.167Z,50.60
2018-04-13T01:49:08.731Z,50.40
2018-04-13T01:51:36.269Z,50.00
2018-04-13T01:54:03.830Z,50.10
2018-04-13T01:56:31.402Z,50.20
2018-04-13T01:58:58.989Z,50.40
2018-04-13T02:01:26.560Z,50.30
2018-04-13T02:03:54.131Z,50.20
2018-04-13T02:06:22.484Z,50.10
2018-04-13T02:08:50.062Z,50.10
2018-04-13T02:11:17.719Z,50.20
2018-04-13T02:13:46.067Z,50.60
2018-04-13T02:16:13.609Z,50.60
2018-04-13T02:18:41.173Z,50.60
2018-04-13T02:21:08.722Z,50.60
2018-04-13T02:23:36.311Z,50.40
2018-04-13T02:26:03.838Z,50.40
2018-04-13T02:28:31.449Z,51.00
2018-04-13T02:30:59.018Z,51.50
2018-04-13T02:33:26.580Z,51.50
2018-04-13T02:35:54.127Z,51.50
2018-04-13T02:38:21.689Z,51.40
2018-04-13T02:40:49.264Z,51.30
2018-04-13T02:43:16.834Z,51.50
2018-04-13T02:45:45.166Z,51.30
2018-04-13T02:48:12.732Z,51.30
2018-04-13T02:50:40.276Z,51.40
2018-04-13T02:53:07.839Z,51.00
2018-04-13T02:55:35.400Z,51.10
2018-04-13T02:58:02.949Z,51.20
2018-04-13T03:00:30.517Z,51.20
2018-04-13T03:02:58.061Z,51.00
2018-04-13T03:05:25.612Z,50.90
2018-04-13T03:07:53.211Z,50.60
2018-04-13T03:10:20.750Z,50.90
2018-04-13T03:12:48.344Z,50.80
2018-04-13T03:15:15.923Z,50.80
2018-04-13T03:17:44.258Z,49.60
2018-04-13T03:20:11.817Z,50.90
2018-04-13T03:22:39.359Z,50.90
2018-04-13T03:25:06.915Z,51.00
2018-04-13T03:27:34.503Z,51.00
2018-04-13T03:30:02.101Z,51.10
2018-04-13T03:32:29.659Z,51.10
2018-04-13T03:34:57.951Z,51.30
2018-04-13T03:37:25.609Z,51.30
2018-04-13T03:39:53.159Z,50.80
2018-04-13T03:42:20.732Z,50.40
2018-04-13T03:44:48.312Z,50.50
2018-04-13T03:47:15.854Z,50.60
2018-04-13T03:49:43.415Z,50.50
2018-04-13T03:52:10.945Z,50.60
2018-04-13T03:54:38.569Z,50.90
2018-04-13T03:57:06.133Z,50.90
2018-04-13T03:59:33.788Z,50.80
2018-04-13T04:02:01.460Z,50.80
2018-04-13T04:04:29.082Z,50.80
2018-04-13T04:06:57.542Z,50.70
2018-04-13T04:09:25.158Z,50.40
2018-04-13T04:11:52.736Z,50.60
2018-04-13T04:14:20.976Z,50.80
2018-04-13T04:16:48.541Z,50.80
2018-04-13T04:19:16.123Z,50.70
2018-04-13T04:21:55.408Z,50.60
2018-04-13T04:24:35.490Z,50.70
2018-04-13T04:27:03.107Z,50.60
2018-04-13T04:29:30.683Z,50.20
2018-04-13T04:31:58.252Z,50.00
2018-04-13T04:34:25.775Z,50.20
2018-04-13T04:36:53.343Z,50.10
2018-04-13T04:39:20.955Z,50.20
2018-04-13T04:41:48.483Z,49.90
2018-04-13T04:44:16.053Z,49.80
2018-04-13T04:46:43.603Z,49.70
2018-04-13T04:49:11.290Z,49.60
2018-04-13T04:51:38.866Z,49.20
2018-04-13T04:54:06.411Z,49.60
2018-04-13T04:56:33.984Z,49.30
2018-04-13T04:59:01.531Z,49.00
2018-04-13T05:01:29.171Z,48.90
2018-04-13T05:03:56.717Z,49.00
2018-04-13T05:06:24.260Z,49.10
2018-04-13T05:08:51.800Z,49.70
2018-04-13T05:11:19.364Z,50.30
2018-04-13T05:13:46.906Z,50.40
2018-04-13T05:16:14.478Z,50.80
2018-04-13T05:18:42.051Z,50.80
2018-04-13T05:21:09.619Z,50.70
2018-04-13T05:23:37.232Z,50.90
2018-04-13T05:26:04.875Z,50.60
2018-04-13T05:28:32.435Z,50.70
2018-04-13T05:31:00.064Z,50.80
2018-04-13T05:33:27.618Z,50.80
2018-04-13T05:35:55.211Z,50.40
2018-04-13T05:38:22.765Z,49.40
2018-04-13T05:40:50.327Z,48.20
2018-04-13T05:43:17.882Z,48.00
2018-04-13T05:45:45.520Z,48.10
2018-04-13T05:48:13.948Z,48.60
2018-04-13T05:50:41.658Z,48.50
2018-04-13T05:53:09.299Z,48.60
2018-04-13T05:55:36.897Z,48.70
2018-04-13T05:58:05.259Z,48.20
2018-04-13T06:00:33.083Z,48.20
2018-04-13T06:03:00.621Z,47.70
2018-04-13T06:05:28.215Z,47.50
2018-04-13T06:07:55.805Z,47.20
2018-04-13T06:10:23.435Z,46.70
2018-04-13T06:12:50.965Z,46.40
2018-04-13T06:15:18.556Z,46.20
2018-04-13T06:17:46.903Z,46.10
2018-04-13T06:20:14.446Z,46.10
2018-04-13T06:22:42.144Z,45.80
2018-04-13T06:25:09.731Z,45.80
2018-04-13T06:27:37.295Z,45.80
2018-04-13T06:30:04.878Z,45.80
2018-04-13T06:32:32.825Z,46.00
2018-04-13T06:35:00.400Z,46.00
2018-04-13T06:37:27.973Z,46.00
2018-04-13T06:39:56.312Z,45.90
2018-04-13T06:42:24.056Z,45.80
2018-04-13T06:44:51.619Z,45.90
2018-04-13T06:47:19.184Z,46.10
2018-04-13T06:49:46.837Z,46.00
2018-04-13T06:52:14.521Z,45.80
2018-04-13T06:54:42.268Z,46.00
2018-04-13T06:57:09.970Z,45.90
2018-04-13T06:59:37.588Z,45.80
2018-04-13T07:02:05.163Z,45.90
2018-04-13T07:04:32.767Z,46.20
2018-04-13T07:07:01.128Z,46.30
2018-04-13T07:09:28.721Z,46.30
2018-04-13T07:11:56.332Z,45.90
2018-04-13T07:14:23.852Z,45.70
2018-04-13T07:16:51.404Z,45.70
2018-04-13T07:19:18.994Z,45.80
2018-04-13T07:21:46.567Z,45.70
2018-04-13T07:24:14.173Z,45.60
2018-04-13T07:26:42.261Z,45.50
2018-04-13T07:29:09.860Z,45.40
2018-04-13T07:31:37.499Z,45.40
2018-04-13T07:34:05.083Z,45.60
2018-04-13T07:36:32.735Z,45.60
2018-04-13T07:39:00.378Z,45.80
2018-04-13T07:41:28.061Z,46.00
2018-04-13T07:43:55.641Z,45.90
2018-04-13T07:46:23.940Z,46.00
2018-04-13T07:48:51.512Z,46.00
2018-04-13T07:51:19.182Z,46.40
2018-04-13T07:53:46.753Z,46.40
2018-04-13T07:56:14.329Z,46.60
2018-04-13T07:58:42.477Z,46.90
2018-04-13T08:01:09.755Z,47.20
2018-04-13T08:03:37.389Z,47.50
2018-04-13T08:06:05.005Z,47.50
2018-04-13T08:08:32.621Z,47.50
2018-04-13T08:11:00.234Z,47.90
2018-04-13T08:13:27.900Z,48.00
2018-04-13T08:15:55.449Z,48.10
2018-04-13T08:18:23.103Z,48.30
2018-04-13T08:20:50.723Z,48.40
2018-04-13T08:23:18.427Z,48.40
2018-04-13T08:25:46.104Z,48.50
2018-04-13T08:28:13.751Z,48.50
2018-04-13T08:30:41.339Z,48.70
2018-04-13T08:33:08.974Z,48.90
2018-04-13T08:35:36.667Z,48.80
2018-04-13T08:38:04.183Z,48.90
2018-04-13T08:40:31.734Z,48.80
2018-04-13T08:42:59.418Z,49.00
2018-04-13T08:45:27.044Z,49.20
2018-04-13T08:47:54.648Z,49.20
2018-04-13T08:50:22.231Z,49.10
2018-04-13T08:52:49.774Z,49.10
2018-04-13T08:55:17.402Z,49.10
2018-04-13T08:57:45.046Z,48.90
2018-04-13T09:00:13.411Z,48.90
2018-04-13T09:02:41.763Z,49.10
2018-04-13T09:05:10.093Z,49.10
2018-04-13T09:07:37.654Z,49.10
2018-04-13T09:10:05.218Z,49.10
2018-04-13T09:12:32.803Z,49.10
2018-04-13T09:15:00.376Z,49.10
2018-04-13T09:17:27.978Z,49.20
2018-04-13T09:19:55.678Z,49.10
2018-04-13T09:22:23.404Z,49.40
2018-04-13T09:24:50.960Z,49.50
2018-04-13T09:27:18.560Z,49.40
2018-04-13T09:29:46.145Z,49.40
2018-04-13T09:32:13.823Z,49.50
2018-04-13T09:34:41.460Z,49.70
2018-04-13T09:37:08.991Z,50.00
2018-04-13T09:39:36.637Z,50.00
2018-04-13T09:42:04.250Z,50.00
2018-04-13T09:44:31.989Z,50.20
2018-04-13T09:46:59.663Z,50.20
2018-04-13T09:49:27.228Z,50.20
2018-04-13T09:51:54.887Z,50.40
2018-04-13T09:54:22.657Z,50.60
2018-04-13T09:56:50.216Z,50.60
2018-04-13T09:59:17.797Z,50.70
2018-04-13T10:01:45.428Z,50.70
2018-04-13T10:04:13.139Z,50.70
2018-04-13T10:06:40.753Z,50.50
2018-04-13T10:09:08.319Z,50.70
2018-04-13T10:11:35.869Z,50.50
2018-04-13T10:14:03.486Z,50.50
2018-04-13T10:16:31.055Z,50.60
2018-04-13T10:18:58.640Z,50.40
2018-04-13T10:21:26.192Z,50.20
2018-04-13T10:23:54.920Z,50.10
2018-04-13T10:26:22.481Z,50.00
2018-04-13T10:28:50.101Z,50.00
2018-04-13T10:31:17.684Z,50.20
2018-04-13T10:33:50.260Z,49.90
2018-04-13T10:36:17.843Z,49.90
2018-04-13T10:38:45.540Z,49.90
2018-04-13T10:41:13.160Z,50.10
2018-04-13T10:43:40.722Z,50.30
2018-04-13T10:46:08.294Z,50.30
2018-04-13T10:48:35.928Z,50.30
2018-04-13T10:51:03.651Z,50.20
2018-04-13T10:53:31.500Z,50.20
2018-04-13T10:55:59.282Z,50.10
2018-04-13T10:58:26.912Z,50.00
2018-04-13T11:00:54.869Z,50.10
2018-04-13T11:03:22.527Z,49.90
2018-04-13T11:05:50.185Z,49.10
2018-04-13T11:08:17.767Z,49.60
2018-04-13T11:10:46.367Z,50.00
2018-04-13T11:13:14.094Z,50.10
2018-04-13T11:15:41.852Z,49.90
2018-04-13T11:18:10.189Z,49.60
2018-04-13T11:20:37.839Z,49.70
2018-04-13T11:23:05.407Z,49.80
2018-04-13T11:25:33.784Z,49.80
2018-04-13T11:28:01.366Z,49.60
2018-04-13T11:30:28.992Z,50.10
2018-04-13T11:32:57.339Z,50.60
2018-04-13T11:35:25.429Z,50.60
2018-04-13T11:37:53.762Z,50.90
2018-04-13T11:40:21.804Z,51.40
2018-04-13T11:42:49.411Z,52.10
2018-04-13T11:45:17.404Z,52.60
2018-04-13T11:47:45.792Z,52.70
2018-04-13T11:50:13.629Z,52.70
2018-04-13T11:52:41.560Z,53.20
2018-04-13T11:55:09.556Z,53.10
2018-04-13T11:57:37.247Z,53.10
2018-04-13T12:00:04.831Z,52.80
2018-04-13T12:02:33.192Z,52.60
2018-04-13T12:05:00.767Z,52.50
2018-04-13T12:07:29.127Z,52.20
2018-04-13T12:09:57.479Z,52.40
2018-04-13T12:12:25.071Z,52.40
2018-04-13T12:14:52.694Z,52.40
2018-04-13T12:17:20.270Z,52.40
2018-04-13T12:19:47.856Z,52.70
2018-04-13T12:22:16.377Z,52.70
2018-04-13T12:24:43.925Z,52.60
2018-04-13T12:27:11.529Z,52.70
2018-04-13T12:29:39.390Z,53.10
2018-04-13T12:32:06.955Z,53.10
2018-04-13T12:34:35.337Z,53.30
2018-04-13T12:37:02.962Z,53.20
2018-04-13T12:39:30.502Z,53.00
2018-04-13T12:41:58.088Z,53.10
2018-04-13T12:44:25.835Z,53.20
2018-04-13T12:46:53.438Z,53.20
2018-04-13T12:49:21.029Z,53.30
2018-04-13T12:51:49.430Z,53.10
2018-04-13T12:54:17.241Z,53.10
2018-04-13T12:56:44.893Z,53.60
2018-04-13T12:59:12.487Z,54.20
2018-04-13T13:01:40.555Z,54.10
2018-04-13T13:04:08.432Z,54.30
2018-04-13T13:06:39.027Z,54.00
2018-04-13T13:09:09.583Z,54.10
2018-04-13T13:11:37.540Z,53.70
2018-04-13T13:14:05.091Z,53.80
2018-04-13T13:16:32.712Z,53.80
2018-04-13T13:19:00.255Z,54.10
2018-04-13T13:21:27.859Z,54.40
2018-04-13T13:23:55.431Z,54.30
2018-04-13T13:26:22.966Z,54.10
2018-04-13T13:28:50.595Z,54.50
2018-04-13T13:31:18.914Z,54.80
2018-04-13T13:33:47.514Z,54.90
2018-04-13T13:36:15.063Z,54.90
2018-04-13T13:38:42.644Z,55.60
2018-04-13T13:41:10.216Z,55.10
2018-04-13T13:43:37.798Z,55.50
2018-04-13T13:46:05.388Z,55.80
2018-04-13T13:48:33.168Z,55.90
2018-04-13T13:51:00.796Z,55.90
2018-04-13T13:53:28.352Z,55.00
2018-04-13T13:55:55.928Z,54.70
2018-04-13T13:58:23.526Z,54.40
2018-04-13T14:00:51.142Z,54.00
2018-04-13T14:03:18.788Z,53.70
2018-04-13T14:05:46.405Z,53.70
2018-04-13T14:08:14.031Z,53.20
2018-04-13T14:10:41.592Z,53.10
2018-04-13T14:13:09.226Z,52.80
2018-04-13T14:15:36.814Z,52.90
2018-04-13T14:18:04.472Z,52.90
2018-04-13T14:20:32.055Z,52.00
2018-04-13T14:22:59.593Z,51.90
2018-04-13T14:25:27.199Z,51.80
2018-04-13T14:27:54.818Z,51.80
2018-04-13T14:30:22.552Z,51.70
2018-04-13T14:32:50.041Z,51.80
2018-04-13T14:35:17.601Z,51.50
2018-04-13T14:37:45.379Z,51.30
2018-04-13T14:40:12.992Z,51.70
2018-04-13T14:42:40.637Z,51.80
2018-04-13T14:45:08.184Z,52.10
2018-04-13T14:47:35.764Z,51.80
2018-04-13T14:50:03.415Z,51.60
2018-04-13T14:52:31.020Z,51.40
2018-04-13T14:54:58.548Z,51.30
2018-04-13T14:57:26.172Z,51.50
2018-04-13T14:59:53.730Z,51.70
2018-04-13T15:02:21.313Z,51.90
2018-04-13T15:04:48.882Z,51.90
2018-04-13T15:07:16.400Z,51.50
2018-04-13T15:09:44.011Z,51.40
2018-04-13T15:12:11.631Z,51.50
2018-04-13T15:14:39.212Z,51.30
2018-04-13T15:17:06.765Z,51.40
2018-04-13T15:19:34.380Z,51.40
2018-04-13T15:22:02.739Z,51.10
2018-04-13T15:24:31.063Z,51.30
2018-04-13T15:26:58.691Z,51.30
2018-04-13T15:29:27.122Z,51.30
2018-04-13T15:31:54.694Z,51.30
2018-04-13T15:34:22.289Z,51.40
2018-04-13T15:36:50.743Z,51.20
2018-04-13T15:39:18.350Z,50.70
2018-04-13T15:41:45.962Z,50.70
2018-04-13T15:44:13.512Z,50.80
2018-04-13T15:46:41.119Z,50.80
2018-04-13T15:49:08.719Z,50.60
2018-04-13T15:51:36.438Z,50.70
2018-04-13T15:54:04.063Z,50.40
2018-04-13T15:56:31.719Z,50.20
2018-04-13T15:58:59.262Z,50.00
2018-04-13T16:01:26.913Z,50.30
2018-04-13T16:03:54.488Z,50.00
2018-04-13T16:06:22.059Z,50.00
2018-04-13T16:08:49.696Z,50.20
2018-04-13T16:11:17.304Z,50.30
2018-04-13T16:13:44.879Z,50.20
2018-04-13T16:16:13.230Z,49.90
2018-04-13T16:18:40.769Z,49.90
2018-04-13T16:21:08.329Z,50.00
2018-04-13T16:23:35.896Z,49.90
2018-04-13T16:26:03.492Z,49.60
2018-04-13T16:28:31.159Z,49.30
2018-04-13T16:30:58.754Z,49.30
2018-04-13T16:33:26.321Z,49.40
2018-04-13T16:35:53.889Z,49.70
2018-04-13T16:38:21.568Z,49.70
2018-04-13T16:40:49.109Z,49.70
2018-04-13T16:43:16.804Z,49.60
2018-04-13T16:45:44.364Z,49.40
2018-04-13T16:48:11.907Z,49.40
2018-04-13T16:50:39.535Z,49.20
2018-04-13T16:53:07.828Z,49.50
2018-04-13T16:55:35.358Z,49.50
2018-04-13T16:58:02.932Z,49.50
2018-04-13T17:00:30.479Z,49.50
2018-04-13T17:02:58.048Z,49.50
2018-04-13T17:05:25.615Z,49.40
2018-04-13T17:07:53.187Z,49.40
2018-04-13T17:10:20.796Z,49.30
2018-04-13T17:12:48.357Z,49.90
2018-04-13T17:15:15.920Z,49.30
2018-04-13T17:17:43.562Z,49.20
2018-04-13T17:20:11.200Z,49.40
2018-04-13T17:22:38.753Z,49.80
2018-04-13T17:25:06.411Z,49.90
2018-04-13T17:27:35.291Z,50.00
2018-04-13T17:30:02.889Z,49.40
2018-04-13T17:32:30.486Z,49.30
2018-04-13T17:34:58.313Z,49.40
2018-04-13T17:37:25.881Z,49.30
2018-04-13T17:39:53.440Z,49.40
2018-04-13T17:42:21.012Z,49.90
2018-04-13T17:44:49.362Z,50.50
2018-04-13T17:47:16.974Z,50.40
2018-04-13T17:49:44.511Z,50.60
2018-04-13T17:52:12.125Z,50.50
2018-04-13T17:54:39.791Z,50.50
2018-04-13T17:57:07.415Z,50.30
2018-04-13T17:59:34.976Z,50.40
2018-04-13T18:02:02.573Z,50.50
2018-04-13T18:04:30.103Z,50.40
2018-04-13T18:06:57.644Z,50.60
2018-04-13T18:09:25.212Z,50.40
2018-04-13T18:11:53.588Z,50.80
2018-04-13T18:14:21.974Z,50.80
2018-04-13T18:16:49.575Z,50.70
2018-04-13T18:19:17.338Z,50.70
2018-04-13T18:21:44.922Z,50.80
2018-04-13T18:24:12.492Z,50.80
2018-04-13T18:26:40.090Z,51.30
2018-04-13T18:29:07.746Z,51.60
2018-04-13T18:31:35.299Z,51.90
2018-04-13T18:34:02.858Z,51.90
2018-04-13T18:36:31.157Z,51.80
2018-04-13T18:38:58.732Z,51.70
2018-04-13T18:41:26.303Z,51.80
2018-04-13T18:43:53.873Z,51.90
2018-04-13T18:46:21.464Z,51.80
2018-04-13T18:48:49.055Z,51.70
2018-04-13T18:51:16.657Z,52.00
2018-04-13T18:53:44.252Z,52.20
2018-04-13T18:56:11.980Z,52.20
2018-04-13T18:58:40.324Z,52.20
2018-04-13T19:01:07.959Z,51.90
2018-04-13T19:03:35.658Z,52.40
2018-04-13T19:06:03.231Z,52.40
2018-04-13T19:08:30.812Z,52.30
2018-04-13T19:10:58.367Z,52.40
2018-04-13T19:13:25.955Z,52.50
2018-04-13T19:15:53.588Z,52.40
2018-04-13T19:18:21.154Z,52.40
2018-04-13T19:20:48.735Z,52.50
2018-04-13T19:23:16.269Z,52.80
2018-04-13T19:25:43.891Z,53.00
2018-04-13T19:28:11.504Z,52.90
2018-04-13T19:30:39.039Z,52.80
2018-04-13T19:33:06.596Z,52.70
2018-04-13T19:35:34.220Z,53.20
2018-04-13T19:38:02.552Z,53.70
2018-04-13T19:40:30.068Z,53.70
2018-04-13T19:42:57.620Z,54.00
2018-04-13T19:45:26.035Z,54.20
2018-04-13T19:47:53.608Z,54.20
2018-04-13T19:50:21.168Z,54.60
2018-04-13T19:52:48.712Z,54.90
2018-04-13T19:55:16.286Z,54.60
2018-04-13T19:57:43.864Z,54.40
2018-04-13T20:00:11.416Z,54.80
2018-04-13T20:02:39.049Z,54.70
2018-04-13T20:05:06.730Z,54.40
2018-04-13T20:07:34.337Z,54.30
2018-04-13T20:10:01.927Z,54.40
2018-04-13T20:12:29.535Z,54.40
2018-04-13T20:14:57.081Z,54.40
2018-04-13T20:17:24.668Z,54.40
2018-04-13T20:19:53.023Z,54.50
2018-04-13T20:22:20.564Z,54.40
2018-04-13T20:24:48.177Z,54.00
2018-04-13T20:27:15.774Z,54.10
2018-04-13T20:29:43.365Z,54.40
2018-04-13T20:32:10.986Z,54.30
2018-04-13T20:34:38.759Z,54.60
2018-04-13T20:37:06.440Z,53.20
2018-04-13T20:39:34.020Z,54.20
2018-04-13T20:42:01.617Z,53.90
2018-04-13T20:44:29.195Z,53.80
2018-04-13T20:46:56.735Z,53.90
2018-04-13T20:49:24.363Z,54.00
2018-04-13T20:51:51.940Z,54.00
2018-04-13T20:54:19.544Z,53.70
2018-04-13T20:56:47.126Z,54.00
2018-04-13T20:59:14.744Z,54.10
2018-04-13T21:01:42.308Z,54.00
2018-04-13T21:04:09.920Z,54.20
2018-04-13T21:06:37.479Z,54.20
2018-04-13T21:09:05.085Z,54.00
2018-04-13T21:11:32.663Z,54.10
2018-04-13T21:14:00.225Z,54.30
2018-04-13T21:16:27.887Z,54.60
2018-04-13T21:18:55.478Z,54.60
2018-04-13T21:21:23.078Z,54.50
2018-04-13T21:23:50.780Z,54.50
2018-04-13T21:26:18.340Z,54.40
2018-04-13T21:28:45.974Z,54.20
2018-04-13T21:31:13.541Z,54.40
2018-04-13T21:33:41.089Z,54.40
2018-04-13T21:36:08.671Z,54.30
2018-04-13T21:38:36.230Z,53.90
2018-04-13T21:41:03.793Z,53.50
2018-04-13T21:43:31.348Z,53.30
2018-04-13T21:45:58.944Z,53.70
2018-04-13T21:48:26.488Z,53.70
2018-04-13T21:50:54.048Z,53.90
2018-04-13T21:53:21.621Z,54.00
2018-04-13T21:55:49.171Z,54.30
2018-04-13T21:58:16.700Z,54.30
2018-04-13T22:00:44.288Z,54.20
2018-04-13T22:03:11.927Z,54.40
2018-04-13T22:05:39.430Z,54.30
2018-04-13T22:08:07.037Z,54.30
2018-04-13T22:10:35.409Z,54.50
2018-04-13T22:13:14.702Z,54.50
2018-04-13T22:15:42.281Z,54.70
2018-04-13T22:18:09.819Z,55.00
2018-04-13T22:20:37.453Z,55.00
2018-04-13T22:23:05.004Z,54.70
2018-04-13T22:25:33.332Z,54.30
2018-04-13T22:28:00.870Z,54.30
2018-04-13T22:30:28.495Z,54.60
2018-04-13T22:32:56.045Z,54.50
2018-04-13T22:35:23.633Z,54.60
2018-04-13T22:37:51.242Z,55.20
2018-04-13T22:40:18.816Z,54.70
2018-04-13T22:42:46.419Z,54.70
2018-04-13T22:45:14.025Z,54.60
2018-04-13T22:47:41.612Z,54.50
2018-04-13T22:50:09.229Z,54.70
2018-04-13T22:52:36.799Z,54.80
2018-04-13T22:55:04.464Z,54.50
2018-04-13T22:57:32.056Z,54.30
2018-04-13T22:59:59.587Z,54.70
2018-04-13T23:02:27.132Z,55.30
2018-04-13T23:04:54.742Z,54.90
2018-04-13T23:07:23.176Z,54.50
2018-04-13T23:09:50.764Z,54.40
2018-04-13T23:12:19.094Z,54.40
2018-04-13T23:14:46.615Z,54.40
2018-04-13T23:17:14.164Z,54.20
2018-04-13T23:19:41.726Z,54.30
2018-04-13T23:22:10.037Z,54.00
2018-04-13T23:24:37.614Z,54.00
2018-04-13T23:27:05.213Z,53.80
2018-04-13T23:29:32.746Z,54.10
2018-04-13T23:32:00.317Z,54.20
2018-04-13T23:34:27.849Z,54.30
2018-04-13T23:36:55.408Z,54.10
2018-04-13T23:39:22.928Z,54.10
2018-04-13T23:41:50.482Z,53.80
2018-04-13T23:44:18.007Z,53.40
2018-04-13T23:46:45.627Z,53.60
2018-04-13T23:49:13.165Z,53.40
2018-04-13T23:51:40.728Z,53.40
2018-04-13T23:54:08.314Z,53.40
2018-04-13T23:56:35.859Z,53.60
2018-04-13T23:59:03.415Z,54.00
